Terminal Aerodrome Forecast
Issued by NWS

Home | Current Version | Previous Version | Text Only | Print | Product List | Glossary On
Versions: 1 2 3 4 5 6 7 8 9 10 11 12 13 14 15 16
000
FTUS41 KAKQ 201100
TAFPHF
TAF
KPHF 201130Z 2012/2112 36003KT P6SM SCT080 OVC150
     FM201600 03005KT P6SM BKN040 OVC080
     FM202000 03004KT P6SM VCSH BKN030 OVC060
     FM202300 04005KT P6SM BKN050=

USA.gov is the U.S. government's official web portal to all federal, state and local government web resources and services.